^^
Station Historical Data
Daily Summary for June 17, 2017 Units:  Both    English   Metric
« Previous Day
Next Day »
Daily Weekly Monthly Yearly Custom
  High: Low: Average:
Temperature: 73.0 °F /  22.8 °C 45.1 °F /  7.3 °C 57.9 °F /  14.4 °C
Dew Point: 36.7 °F /  2.6 °C 30.6 °F /  -0.8 °C 32.7 °F /  0.4 °C
Humidity: 60% 23% 41%
Wind Speed: 6.0mph /  9.7km/h - 0.4mph /  0.6km/h
Wind Gust: 8.0mph /  12.9km/h - -
Wind- - SW
Pressure: 30.34 in /  1027.3 hPa 30.20 in /  1022.6 hPa -
Precipitation: 0.00 in /  0 mm    
Historical Graphs
 
 
Tabular Data for June 17, 2017
Time Temperature Dew Point Pressure Wind Wind Speed Wind Gust Humidity Rainfall Rate (Hourly) solar Conditions
00:05 48.9 °F /  9.4 °C 31.1 °F /  -0.5 °C 30.32in /  1026.6hPa Calm     50% 0.00in /  0mm 0.0 W/m2
00:12 48.9 °F /  9.4 °C 31.1 °F /  -0.5 °C 30.32in /  1026.6hPa Calm     50% 0.00in /  0mm 0.0 W/m2
00:18 48.9 °F /  9.4 °C 31.1 °F /  -0.5 °C 30.32in /  1026.6hPa Calm   1.0mph /  1.6km/h 50% 0.00in /  0mm 0.0 W/m2
00:24 48.9 °F /  9.4 °C 31.1 °F /  -0.5 °C 30.32in /  1026.6hPa Calm     50% 0.00in /  0mm 0.0 W/m2
00:30 48.7 °F /  9.3 °C 30.9 °F /  -0.6 °C 30.32in /  1026.6hPa Calm     50% 0.00in /  0mm 0.0 W/m2
00:36 48.7 °F /  9.3 °C 30.9 °F /  -0.6 °C 30.32in /  1026.6hPa Calm     50% 0.00in /  0mm 0.0 W/m2
00:42 48.7 °F /  9.3 °C 30.9 °F /  -0.6 °C 30.32in /  1026.6hPa Calm   1.0mph /  1.6km/h 50% 0.00in /  0mm 0.0 W/m2
00:48 48.6 °F /  9.2 °C 31.3 °F /  -0.4 °C 30.32in /  1026.6hPa Calm     51% 0.00in /  0mm 0.0 W/m2
00:54 48.6 °F /  9.2 °C 31.3 °F /  -0.4 °C 30.32in /  1026.6hPa Calm     51% 0.00in /  0mm 0.0 W/m2
01:00 48.6 °F /  9.2 °C 31.3 °F /  -0.4 °C 30.32in /  1026.6hPa Calm     51% 0.00in /  0mm 0.0 W/m2
01:07 48.4 °F /  9.1 °C 31.1 °F /  -0.5 °C 30.32in /  1026.6hPa Calm     51% 0.00in /  0mm 0.0 W/m2
01:13 48.0 °F /  8.9 °C 31.3 °F /  -0.4 °C 30.32in /  1026.6hPa Calm   1.0mph /  1.6km/h 52% 0.00in /  0mm 0.0 W/m2
01:19 48.0 °F /  8.9 °C 31.3 °F /  -0.4 °C 30.32in /  1026.6hPa Calm   2.0mph /  3.2km/h 52% 0.00in /  0mm 0.0 W/m2
01:25 48.0 °F /  8.9 °C 31.3 °F /  -0.4 °C 30.31in /  1026.3hPa Calm   1.0mph /  1.6km/h 52% 0.00in /  0mm 0.0 W/m2
01:31 48.2 °F /  9 °C 31.5 °F /  -0.3 °C 30.31in /  1026.3hPa Calm     52% 0.00in /  0mm 0.0 W/m2
01:37 48.4 °F /  9.1 °C 31.6 °F /  -0.2 °C 30.31in /  1026.3hPa Calm     52% 0.00in /  0mm 0.0 W/m2
01:44 48.2 °F /  9 °C 31.5 °F /  -0.3 °C 30.31in /  1026.3hPa Calm     52% 0.00in /  0mm 0.0 W/m2
01:50 48.2 °F /  9 °C 31.5 °F /  -0.3 °C 30.31in /  1026.3hPa Calm     52% 0.00in /  0mm 0.0 W/m2
01:56 48.0 °F /  8.9 °C 31.6 °F /  -0.2 °C 30.31in /  1026.3hPa Calm     53% 0.00in /  0mm 0.0 W/m2
02:02 48.0 °F /  8.9 °C 31.6 °F /  -0.2 °C 30.31in /  1026.3hPa Calm     53% 0.00in /  0mm 0.0 W/m2
02:08 47.8 °F /  8.8 °C 32.0 °F /  0 °C 30.30in /  1026hPa Calm     54% 0.00in /  0mm 0.0 W/m2
02:14 47.7 °F /  8.7 °C 31.8 °F /  -0.1 °C 30.30in /  1026hPa Calm     54% 0.00in /  0mm 0.0 W/m2
02:20 47.5 °F /  8.6 °C 31.6 °F /  -0.2 °C 30.30in /  1026hPa Calm     54% 0.00in /  0mm 0.0 W/m2
02:26 47.1 °F /  8.4 °C 31.8 °F /  -0.1 °C 30.30in /  1026hPa Calm     55% 0.00in /  0mm 0.0 W/m2
02:32 47.1 °F /  8.4 °C 31.8 °F /  -0.1 °C 30.30in /  1026hPa Calm     55% 0.00in /  0mm 0.0 W/m2
02:39 46.9 °F /  8.3 °C 31.6 °F /  -0.2 °C 30.29in /  1025.6hPa Calm     55% 0.00in /  0mm 0.0 W/m2
02:45 46.8 °F /  8.2 °C 31.8 °F /  -0.1 °C 30.29in /  1025.6hPa Calm     56% 0.00in /  0mm 0.0 W/m2
02:51 46.6 °F /  8.1 °C 31.6 °F /  -0.2 °C 30.29in /  1025.6hPa Calm     56% 0.00in /  0mm 0.0 W/m2
02:57 46.4 °F /  8 °C 32.0 °F /  0 °C 30.29in /  1025.6hPa Calm     57% 0.00in /  0mm 0.0 W/m2
03:03 46.2 °F /  7.9 °C 31.8 °F /  -0.1 °C 30.29in /  1025.6hPa Calm     57% 0.00in /  0mm 0.0 W/m2
03:09 46.0 °F /  7.8 °C 32.0 °F /  0 °C 30.29in /  1025.6hPa Calm     58% 0.00in /  0mm 0.0 W/m2
03:15 45.9 °F /  7.7 °C 32.0 °F /  0 °C 30.29in /  1025.6hPa Calm     58% 0.00in /  0mm 0.0 W/m2
03:22 45.7 °F /  7.6 °C 31.8 °F /  -0.1 °C 30.29in /  1025.6hPa Calm     58% 0.00in /  0mm 0.0 W/m2
03:28 45.7 °F /  7.6 °C 32.2 °F /  0.1 °C 30.29in /  1025.6hPa Calm     59% 0.00in /  0mm 0.0 W/m2
03:34 45.3 °F /  7.4 °C 31.8 °F /  -0.1 °C 30.29in /  1025.6hPa Calm     59% 0.00in /  0mm 0.0 W/m2
03:40 45.3 °F /  7.4 °C 31.8 °F /  -0.1 °C 30.29in /  1025.6hPa Calm     59% 0.00in /  0mm 0.0 W/m2
03:46 45.1 °F /  7.3 °C 32.0 °F /  0 °C 30.29in /  1025.6hPa Calm     60% 0.00in /  0mm 0.0 W/m2
03:52 45.1 °F /  7.3 °C 31.6 °F /  -0.2 °C 30.29in /  1025.6hPa Calm     59% 0.00in /  0mm 0.0 W/m2
03:58 45.1 °F /  7.3 °C 32.0 °F /  0 °C 30.29in /  1025.6hPa Calm     60% 0.00in /  0mm 0.0 W/m2
04:05 45.1 °F /  7.3 °C 32.0 °F /  0 °C 30.30in /  1026hPa Calm     60% 0.00in /  0mm 0.0 W/m2
04:11 45.1 °F /  7.3 °C 32.0 °F /  0 °C 30.30in /  1026hPa Calm     60% 0.00in /  0mm 0.0 W/m2
04:17 45.3 °F /  7.4 °C 31.8 °F /  -0.1 °C 30.30in /  1026hPa Calm     59% 0.00in /  0mm 0.0 W/m2
04:23 45.3 °F /  7.4 °C 31.8 °F /  -0.1 °C 30.30in /  1026hPa Calm     59% 0.00in /  0mm 0.0 W/m2
04:29 45.3 °F /  7.4 °C 32.2 °F /  0.1 °C 30.30in /  1026hPa Calm     60% 0.00in /  0mm 0.0 W/m2
04:35 45.3 °F /  7.4 °C 31.8 °F /  -0.1 °C 30.30in /  1026hPa Calm     59% 0.00in /  0mm 0.0 W/m2
04:41 45.3 °F /  7.4 °C 31.8 °F /  -0.1 °C 30.30in /  1026hPa Calm     59% 0.00in /  0mm 0.0 W/m2
04:48 45.1 °F /  7.3 °C 31.6 °F /  -0.2 °C 30.30in /  1026hPa Calm     59% 0.00in /  0mm 0.0 W/m2
04:54 45.1 °F /  7.3 °C 32.0 °F /  0 °C 30.30in /  1026hPa Calm     60% 0.00in /  0mm 0.0 W/m2
05:00 45.3 °F /  7.4 °C 32.2 °F /  0.1 °C 30.30in /  1026hPa Calm     60% 0.00in /  0mm 0.0 W/m2
05:06 45.5 °F /  7.5 °C 32.4 °F /  0.2 °C 30.30in /  1026hPa Calm     60% 0.00in /  0mm 0.0 W/m2
05:12 45.7 °F /  7.6 °C 32.2 °F /  0.1 °C 30.30in /  1026hPa Calm   1.0mph /  1.6km/h 59% 0.00in /  0mm 0.0 W/m2
05:18 45.9 °F /  7.7 °C 32.0 °F /  0 °C 30.30in /  1026hPa Calm     58% 0.00in /  0mm 0.0 W/m2
05:24 45.9 °F /  7.7 °C 32.4 °F /  0.2 °C 30.30in /  1026hPa Calm     59% 0.00in /  0mm 0.0 W/m2
05:30 45.9 °F /  7.7 °C 32.4 °F /  0.2 °C 30.30in /  1026hPa Calm   1.0mph /  1.6km/h 59% 0.00in /  0mm 0.0 W/m2
05:37 45.7 °F /  7.6 °C 32.2 °F /  0.1 °C 30.30in /  1026hPa Calm     59% 0.00in /  0mm 0.0 W/m2
05:43 45.7 °F /  7.6 °C 31.8 °F /  -0.1 °C 30.31in /  1026.3hPa Calm   4.0mph /  6.4km/h 58% 0.00in /  0mm 0.0 W/m2
05:49 45.7 °F /  7.6 °C 31.8 °F /  -0.1 °C 30.31in /  1026.3hPa ESE 2.0mph /  3.2km/h 2.0mph /  3.2km/h 58% 0.00in /  0mm 0.0 W/m2
05:55 45.7 °F /  7.6 °C 31.8 °F /  -0.1 °C 30.32in /  1026.6hPa Calm     58% 0.00in /  0mm 0.0 W/m2
06:01 45.7 °F /  7.6 °C 31.8 °F /  -0.1 °C 30.32in /  1026.6hPa Calm     58% 0.00in /  0mm 0.0 W/m2
06:07 45.7 °F /  7.6 °C 31.8 °F /  -0.1 °C 30.32in /  1026.6hPa Calm   1.0mph /  1.6km/h 58% 0.00in /  0mm 0.0 W/m2
06:13 45.7 °F /  7.6 °C 31.8 °F /  -0.1 °C 30.32in /  1026.6hPa Calm   1.0mph /  1.6km/h 58% 0.00in /  0mm 0.0 W/m2
06:19 45.7 °F /  7.6 °C 32.2 °F /  0.1 °C 30.32in /  1026.6hPa Calm   1.0mph /  1.6km/h 59% 0.00in /  0mm 0.0 W/m2
06:26 45.5 °F /  7.5 °C 32.0 °F /  0 °C 30.32in /  1026.6hPa Calm     59% 0.00in /  0mm 0.0 W/m2
06:32 45.7 °F /  7.6 °C 32.2 °F /  0.1 °C 30.32in /  1026.6hPa Calm     59% 0.00in /  0mm 0.0 W/m2
06:38 45.7 °F /  7.6 °C 31.8 °F /  -0.1 °C 30.32in /  1026.6hPa Calm   1.0mph /  1.6km/h 58% 0.00in /  0mm 7.0 W/m2
06:44 45.7 °F /  7.6 °C 31.8 °F /  -0.1 °C 30.33in /  1027hPa Calm   2.0mph /  3.2km/h 58% 0.00in /  0mm 9.0 W/m2
06:50 45.9 °F /  7.7 °C 32.0 °F /  0 °C 30.33in /  1027hPa Calm     58% 0.00in /  0mm 11.0 W/m2
06:56 46.0 °F /  7.8 °C 32.0 °F /  0 °C 30.33in /  1027hPa Calm   1.0mph /  1.6km/h 58% 0.00in /  0mm 12.0 W/m2
07:02 46.2 °F /  7.9 °C 32.2 °F /  0.1 °C 30.34in /  1027.3hPa Calm   1.0mph /  1.6km/h 58% 0.00in /  0mm 14.0 W/m2
07:08 46.2 °F /  7.9 °C 32.2 °F /  0.1 °C 30.34in /  1027.3hPa Calm   1.0mph /  1.6km/h 58% 0.00in /  0mm 16.0 W/m2
07:15 46.2 °F /  7.9 °C 32.7 °F /  0.4 °C 30.33in /  1027hPa Calm   1.0mph /  1.6km/h 59% 0.00in /  0mm 18.0 W/m2
07:21 46.2 °F /  7.9 °C 32.2 °F /  0.1 °C 30.34in /  1027.3hPa Calm   2.0mph /  3.2km/h 58% 0.00in /  0mm 19.0 W/m2
07:27 46.6 °F /  8.1 °C 32.5 °F /  0.3 °C 30.34in /  1027.3hPa Calm   1.0mph /  1.6km/h 58% 0.00in /  0mm 21.0 W/m2
07:33 46.8 °F /  8.2 °C 32.7 °F /  0.4 °C 30.34in /  1027.3hPa Calm   1.0mph /  1.6km/h 58% 0.00in /  0mm 23.0 W/m2
07:39 47.1 °F /  8.4 °C 33.1 °F /  0.6 °C 30.34in /  1027.3hPa Calm   1.0mph /  1.6km/h 58% 0.00in /  0mm 25.0 W/m2
07:45 47.5 °F /  8.6 °C 33.4 °F /  0.8 °C 30.34in /  1027.3hPa Calm     58% 0.00in /  0mm 28.0 W/m2
07:51 48.6 °F /  9.2 °C 34.0 °F /  1.1 °C 30.34in /  1027.3hPa Calm   1.0mph /  1.6km/h 57% 0.00in /  0mm 100.0 W/m2
07:58 50.5 °F /  10.3 °C 34.0 °F /  1.1 °C 30.34in /  1027.3hPa Calm   2.0mph /  3.2km/h 53% 0.00in /  0mm 251.0 W/m2
08:04 53.1 °F /  11.7 °C 34.9 °F /  1.6 °C 30.34in /  1027.3hPa Calm   1.0mph /  1.6km/h 50% 0.00in /  0mm 278.0 W/m2
08:10 54.9 °F /  12.7 °C 35.1 °F /  1.7 °C 30.34in /  1027.3hPa Calm   1.0mph /  1.6km/h 47% 0.00in /  0mm 295.0 W/m2
08:16 56.7 °F /  13.7 °C 35.6 °F /  2 °C 30.34in /  1027.3hPa Calm     45% 0.00in /  0mm 315.0 W/m2
08:22 57.9 °F /  14.4 °C 36.1 °F /  2.3 °C 30.34in /  1027.3hPa Calm     44% 0.00in /  0mm 334.0 W/m2
08:28 59.4 °F /  15.2 °C 36.3 °F /  2.4 °C 30.34in /  1027.3hPa Calm     42% 0.00in /  0mm 352.0 W/m2
08:34 60.6 °F /  15.9 °C 35.6 °F /  2 °C 30.34in /  1027.3hPa Calm     39% 0.00in /  0mm 373.0 W/m2
08:40 61.9 °F /  16.6 °C 34.7 °F /  1.5 °C 30.34in /  1027.3hPa Calm   1.0mph /  1.6km/h 36% 0.00in /  0mm 392.0 W/m2
08:46 63.3 °F /  17.4 °C 35.2 °F /  1.8 °C 30.34in /  1027.3hPa Calm   1.0mph /  1.6km/h 35% 0.00in /  0mm 410.0 W/m2
08:53 64.2 °F /  17.9 °C 35.2 °F /  1.8 °C 30.34in /  1027.3hPa Calm     34% 0.00in /  0mm 425.0 W/m2
08:59 65.1 °F /  18.4 °C 35.2 °F /  1.8 °C 30.34in /  1027.3hPa Calm     33% 0.00in /  0mm 443.0 W/m2
09:05 66.0 °F /  18.9 °C 35.2 °F /  1.8 °C 30.34in /  1027.3hPa Calm     32% 0.00in /  0mm 459.0 W/m2
09:11 66.0 °F /  18.9 °C 35.2 °F /  1.8 °C 30.34in /  1027.3hPa Calm     32% 0.00in /  0mm 473.0 W/m2
09:17 66.2 °F /  19 °C 35.4 °F /  1.9 °C 30.34in /  1027.3hPa Calm     32% 0.00in /  0mm 490.0 W/m2
09:23 67.1 °F /  19.5 °C 35.4 °F /  1.9 °C 30.34in /  1027.3hPa Calm   1.0mph /  1.6km/h 31% 0.00in /  0mm 506.0 W/m2
09:29 67.5 °F /  19.7 °C 35.8 °F /  2.1 °C 30.34in /  1027.3hPa Calm   2.0mph /  3.2km/h 31% 0.00in /  0mm 519.0 W/m2
09:35 68.0 °F /  20 °C 35.4 °F /  1.9 °C 30.33in /  1027hPa Calm   3.0mph /  4.8km/h 30% 0.00in /  0mm 533.0 W/m2
09:41 68.5 °F /  20.3 °C 36.0 °F /  2.2 °C 30.33in /  1027hPa Calm   2.0mph /  3.2km/h 30% 0.00in /  0mm 543.0 W/m2
09:47 68.5 °F /  20.3 °C 36.7 °F /  2.6 °C 30.33in /  1027hPa Calm     31% 0.00in /  0mm 555.0 W/m2
09:53 68.7 °F /  20.4 °C 36.0 °F /  2.2 °C 30.32in /  1026.6hPa Calm   2.0mph /  3.2km/h 30% 0.00in /  0mm 570.0 W/m2
09:59 69.3 °F /  20.7 °C 35.6 °F /  2 °C 30.32in /  1026.6hPa NW 2.9mph /  4.7km/h 6.0mph /  9.7km/h 29% 0.00in /  0mm 580.0 W/m2
10:05 69.8 °F /  21 °C 35.2 °F /  1.8 °C 30.32in /  1026.6hPa NNW 0.9mph /  1.4km/h 3.0mph /  4.8km/h 28% 0.00in /  0mm 592.0 W/m2
10:11 70.3 °F /  21.3 °C 36.5 °F /  2.5 °C 30.32in /  1026.6hPa NNE 2.0mph /  3.2km/h 3.0mph /  4.8km/h 29% 0.00in /  0mm 603.0 W/m2
10:17 70.7 °F /  21.5 °C 36.0 °F /  2.2 °C 30.32in /  1026.6hPa NNW 2.0mph /  3.2km/h 2.0mph /  3.2km/h 28% 0.00in /  0mm 608.0 W/m2
10:23 71.1 °F /  21.7 °C 36.3 °F /  2.4 °C 30.31in /  1026.3hPa WSW 0.9mph /  1.4km/h 1.0mph /  1.6km/h 28% 0.00in /  0mm 619.0 W/m2
10:29 71.1 °F /  21.7 °C 36.3 °F /  2.4 °C 30.31in /  1026.3hPa Calm   3.0mph /  4.8km/h 28% 0.00in /  0mm 629.0 W/m2
10:35 71.1 °F /  21.7 °C 35.4 °F /  1.9 °C 30.31in /  1026.3hPa Calm   6.0mph /  9.7km/h 27% 0.00in /  0mm 636.0 W/m2
10:41 71.2 °F /  21.8 °C 35.6 °F /  2 °C 30.31in /  1026.3hPa Calm   1.0mph /  1.6km/h 27% 0.00in /  0mm 640.0 W/m2
10:47 71.2 °F /  21.8 °C 35.6 °F /  2 °C 30.30in /  1026hPa Calm   3.0mph /  4.8km/h 27% 0.00in /  0mm 649.0 W/m2
10:53 71.2 °F /  21.8 °C 34.5 °F /  1.4 °C 30.30in /  1026hPa Calm   5.0mph /  8km/h 26% 0.00in /  0mm 656.0 W/m2
10:59 71.4 °F /  21.9 °C 33.8 °F /  1 °C 30.30in /  1026hPa WNW 2.0mph /  3.2km/h 6.0mph /  9.7km/h 25% 0.00in /  0mm 661.0 W/m2
11:05 71.8 °F /  22.1 °C 33.1 °F /  0.6 °C 30.29in /  1025.6hPa NNE 2.0mph /  3.2km/h 3.0mph /  4.8km/h 24% 0.00in /  0mm 666.0 W/m2
11:11 72.0 °F /  22.2 °C 33.3 °F /  0.7 °C 30.29in /  1025.6hPa NW 0.9mph /  1.4km/h 2.0mph /  3.2km/h 24% 0.00in /  0mm 668.0 W/m2
11:17 72.0 °F /  22.2 °C 33.3 °F /  0.7 °C 30.29in /  1025.6hPa NNW 2.0mph /  3.2km/h 7.0mph /  11.3km/h 24% 0.00in /  0mm 675.0 W/m2
11:23 72.0 °F /  22.2 °C 33.3 °F /  0.7 °C 30.29in /  1025.6hPa WSW 2.9mph /  4.7km/h 3.0mph /  4.8km/h 24% 0.00in /  0mm 677.0 W/m2
11:29 71.8 °F /  22.1 °C 34.0 °F /  1.1 °C 30.29in /  1025.6hPa West 2.0mph /  3.2km/h 2.0mph /  3.2km/h 25% 0.00in /  0mm 675.0 W/m2
11:35 71.8 °F /  22.1 °C 33.1 °F /  0.6 °C 30.28in /  1025.3hPa NE 0.9mph /  1.4km/h 3.0mph /  4.8km/h 24% 0.00in /  0mm 675.0 W/m2
11:41 72.0 °F /  22.2 °C 33.3 °F /  0.7 °C 30.28in /  1025.3hPa Calm   4.0mph /  6.4km/h 24% 0.00in /  0mm 675.0 W/m2
11:47 72.7 °F /  22.6 °C 34.9 °F /  1.6 °C 30.27in /  1024.9hPa West 2.9mph /  4.7km/h 3.0mph /  4.8km/h 25% 0.00in /  0mm 675.0 W/m2
11:53 72.9 °F /  22.7 °C 34.0 °F /  1.1 °C 30.27in /  1024.9hPa West 2.0mph /  3.2km/h 5.0mph /  8km/h 24% 0.00in /  0mm 679.0 W/m2
11:59 72.0 °F /  22.2 °C 33.3 °F /  0.7 °C 30.27in /  1024.9hPa West 0.9mph /  1.4km/h 8.0mph /  12.9km/h 24% 0.00in /  0mm 677.0 W/m2
12:05 71.2 °F /  21.8 °C 33.6 °F /  0.9 °C 30.27in /  1024.9hPa WSW 2.0mph /  3.2km/h 4.0mph /  6.4km/h 25% 0.00in /  0mm 677.0 W/m2
12:11 71.4 °F /  21.9 °C 32.7 °F /  0.4 °C 30.26in /  1024.6hPa Calm     24% 0.00in /  0mm 675.0 W/m2
12:17 71.4 °F /  21.9 °C 33.8 °F /  1 °C 30.26in /  1024.6hPa Calm   2.0mph /  3.2km/h 25% 0.00in /  0mm 668.0 W/m2
12:23 71.8 °F /  22.1 °C 34.0 °F /  1.1 °C 30.26in /  1024.6hPa Calm   1.0mph /  1.6km/h 25% 0.00in /  0mm 659.0 W/m2
12:29 71.8 °F /  22.1 °C 34.0 °F /  1.1 °C 30.25in /  1024.3hPa Calm   6.0mph /  9.7km/h 25% 0.00in /  0mm 656.0 W/m2
12:35 71.4 °F /  21.9 °C 33.8 °F /  1 °C 30.25in /  1024.3hPa Calm   3.0mph /  4.8km/h 25% 0.00in /  0mm 654.0 W/m2
12:41 71.2 °F /  21.8 °C 32.5 °F /  0.3 °C 30.24in /  1023.9hPa Calm   3.0mph /  4.8km/h 24% 0.00in /  0mm 650.0 W/m2
12:47 71.2 °F /  21.8 °C 33.6 °F /  0.9 °C 30.24in /  1023.9hPa West 2.9mph /  4.7km/h 7.0mph /  11.3km/h 25% 0.00in /  0mm 645.0 W/m2
12:53 71.2 °F /  21.8 °C 33.6 °F /  0.9 °C 30.24in /  1023.9hPa NNW 4.9mph /  7.9km/h 5.0mph /  8km/h 25% 0.00in /  0mm 642.0 W/m2
12:59 71.4 °F /  21.9 °C 32.7 °F /  0.4 °C 30.24in /  1023.9hPa West 2.0mph /  3.2km/h 6.0mph /  9.7km/h 24% 0.00in /  0mm 629.0 W/m2
13:05 71.6 °F /  22 °C 32.9 °F /  0.5 °C 30.23in /  1023.6hPa North 6.0mph /  9.7km/h 6.0mph /  9.7km/h 24% 0.00in /  0mm 622.0 W/m2
13:11 72.1 °F /  22.3 °C 33.4 °F /  0.8 °C 30.23in /  1023.6hPa NNW 2.9mph /  4.7km/h 4.0mph /  6.4km/h 24% 0.00in /  0mm 612.0 W/m2
13:17 72.5 °F /  22.5 °C 33.6 °F /  0.9 °C 30.23in /  1023.6hPa SSE 0.9mph /  1.4km/h 4.0mph /  6.4km/h 24% 0.00in /  0mm 601.0 W/m2
13:23 72.7 °F /  22.6 °C 33.8 °F /  1 °C 30.22in /  1023.2hPa WNW 2.0mph /  3.2km/h 2.0mph /  3.2km/h 24% 0.00in /  0mm 596.0 W/m2
13:29 72.7 °F /  22.6 °C 32.7 °F /  0.4 °C 30.22in /  1023.2hPa WNW 0.9mph /  1.4km/h 3.0mph /  4.8km/h 23% 0.00in /  0mm 585.0 W/m2
13:35 72.7 °F /  22.6 °C 33.8 °F /  1 °C 30.21in /  1022.9hPa Calm   2.0mph /  3.2km/h 24% 0.00in /  0mm 573.0 W/m2
13:41 72.1 °F /  22.3 °C 33.4 °F /  0.8 °C 30.21in /  1022.9hPa WSW 0.9mph /  1.4km/h 4.0mph /  6.4km/h 24% 0.00in /  0mm 561.0 W/m2
13:47 72.0 °F /  22.2 °C 33.3 °F /  0.7 °C 30.21in /  1022.9hPa WSW 2.9mph /  4.7km/h 7.0mph /  11.3km/h 24% 0.00in /  0mm 554.0 W/m2
13:53 72.0 °F /  22.2 °C 33.3 °F /  0.7 °C 30.21in /  1022.9hPa Calm   4.0mph /  6.4km/h 24% 0.00in /  0mm 545.0 W/m2
13:59 72.1 °F /  22.3 °C 33.4 °F /  0.8 °C 30.21in /  1022.9hPa Calm   5.0mph /  8km/h 24% 0.00in /  0mm 533.0 W/m2
14:05 72.3 °F /  22.4 °C 33.4 °F /  0.8 °C 30.20in /  1022.6hPa Calm   5.0mph /  8km/h 24% 0.00in /  0mm 515.0 W/m2
14:11 72.3 °F /  22.4 °C 32.4 °F /  0.2 °C 30.20in /  1022.6hPa Calm   2.0mph /  3.2km/h 23% 0.00in /  0mm 501.0 W/m2
14:17 72.9 °F /  22.7 °C 34.0 °F /  1.1 °C 30.21in /  1022.9hPa Calm   1.0mph /  1.6km/h 24% 0.00in /  0mm 489.0 W/m2
14:23 73.0 °F /  22.8 °C 34.2 °F /  1.2 °C 30.20in /  1022.6hPa Calm   1.0mph /  1.6km/h 24% 0.00in /  0mm 473.0 W/m2
14:29 73.0 °F /  22.8 °C 34.2 °F /  1.2 °C 30.20in /  1022.6hPa Calm   6.0mph /  9.7km/h 24% 0.00in /  0mm 455.0 W/m2
14:35 72.9 °F /  22.7 °C 34.0 °F /  1.1 °C 30.20in /  1022.6hPa WSW 0.9mph /  1.4km/h 2.0mph /  3.2km/h 24% 0.00in /  0mm 443.0 W/m2
14:41 73.0 °F /  22.8 °C 34.2 °F /  1.2 °C 30.20in /  1022.6hPa WNW 0.9mph /  1.4km/h 6.0mph /  9.7km/h 24% 0.00in /  0mm 429.0 W/m2
14:47 72.9 °F /  22.7 °C 32.9 °F /  0.5 °C 30.20in /  1022.6hPa Calm   5.0mph /  8km/h 23% 0.00in /  0mm 410.0 W/m2
14:53 72.9 °F /  22.7 °C 34.0 °F /  1.1 °C 30.20in /  1022.6hPa NNW 0.9mph /  1.4km/h 4.0mph /  6.4km/h 24% 0.00in /  0mm 392.0 W/m2
14:59 72.9 °F /  22.7 °C 34.0 °F /  1.1 °C 30.20in /  1022.6hPa Calm   3.0mph /  4.8km/h 24% 0.00in /  0mm 374.0 W/m2
15:05 72.7 °F /  22.6 °C 33.8 °F /  1 °C 30.20in /  1022.6hPa WSW 2.9mph /  4.7km/h 5.0mph /  8km/h 24% 0.00in /  0mm 352.0 W/m2
15:11 72.3 °F /  22.4 °C 33.4 °F /  0.8 °C 30.20in /  1022.6hPa Calm   2.0mph /  3.2km/h 24% 0.00in /  0mm 338.0 W/m2
15:18 72.1 °F /  22.3 °C 33.4 °F /  0.8 °C 30.20in /  1022.6hPa WNW 0.9mph /  1.4km/h 3.0mph /  4.8km/h 24% 0.00in /  0mm 290.0 W/m2
15:24 71.6 °F /  22 °C 32.9 °F /  0.5 °C 30.20in /  1022.6hPa Calm   3.0mph /  4.8km/h 24% 0.00in /  0mm 49.0 W/m2
15:30 71.2 °F /  21.8 °C 33.6 °F /  0.9 °C 30.20in /  1022.6hPa West 0.9mph /  1.4km/h 3.0mph /  4.8km/h 25% 0.00in /  0mm 44.0 W/m2
15:36 71.2 °F /  21.8 °C 33.6 °F /  0.9 °C 30.20in /  1022.6hPa Calm   4.0mph /  6.4km/h 25% 0.00in /  0mm 42.0 W/m2
15:42 71.2 °F /  21.8 °C 33.6 °F /  0.9 °C 30.20in /  1022.6hPa Calm     25% 0.00in /  0mm 40.0 W/m2
15:48 70.9 °F /  21.6 °C 32.4 °F /  0.2 °C 30.20in /  1022.6hPa Calm     24% 0.00in /  0mm 39.0 W/m2
15:54 70.5 °F /  21.4 °C 34.0 °F /  1.1 °C 30.20in /  1022.6hPa WSW 2.0mph /  3.2km/h 3.0mph /  4.8km/h 26% 0.00in /  0mm 37.0 W/m2
16:00 70.2 °F /  21.2 °C 32.7 °F /  0.4 °C 30.20in /  1022.6hPa Calm   1.0mph /  1.6km/h 25% 0.00in /  0mm 33.0 W/m2
16:06 70.0 °F /  21.1 °C 32.5 °F /  0.3 °C 30.20in /  1022.6hPa NNW 2.9mph /  4.7km/h 6.0mph /  9.7km/h 25% 0.00in /  0mm 28.0 W/m2
16:12 69.6 °F /  20.9 °C 33.3 °F /  0.7 °C 30.20in /  1022.6hPa NW 4.9mph /  7.9km/h 6.0mph /  9.7km/h 26% 0.00in /  0mm 26.0 W/m2
16:18 69.4 °F /  20.8 °C 33.1 °F /  0.6 °C 30.21in /  1022.9hPa NNW 4.0mph /  6.4km/h 5.0mph /  8km/h 26% 0.00in /  0mm 25.0 W/m2
16:24 69.3 °F /  20.7 °C 32.9 °F /  0.5 °C 30.21in /  1022.9hPa NNW 4.0mph /  6.4km/h 5.0mph /  8km/h 26% 0.00in /  0mm 23.0 W/m2
16:30 69.1 °F /  20.6 °C 32.7 °F /  0.4 °C 30.21in /  1022.9hPa WSW 0.9mph /  1.4km/h 1.0mph /  1.6km/h 26% 0.00in /  0mm 21.0 W/m2
16:36 68.7 °F /  20.4 °C 33.4 °F /  0.8 °C 30.21in /  1022.9hPa Calm   1.0mph /  1.6km/h 27% 0.00in /  0mm 19.0 W/m2
16:42 68.4 °F /  20.2 °C 33.1 °F /  0.6 °C 30.21in /  1022.9hPa Calm     27% 0.00in /  0mm 18.0 W/m2
16:49 68.0 °F /  20 °C 33.6 °F /  0.9 °C 30.21in /  1022.9hPa Calm     28% 0.00in /  0mm 16.0 W/m2
16:55 67.5 °F /  19.7 °C 33.3 °F /  0.7 °C 30.21in /  1022.9hPa Calm   1.0mph /  1.6km/h 28% 0.00in /  0mm 12.0 W/m2
17:01 66.9 °F /  19.4 °C 33.6 °F /  0.9 °C 30.22in /  1023.2hPa Calm     29% 0.00in /  0mm 11.0 W/m2
17:07 66.6 °F /  19.2 °C 34.2 °F /  1.2 °C 30.22in /  1023.2hPa Calm     30% 0.00in /  0mm 7.0 W/m2
17:13 65.8 °F /  18.8 °C 34.3 °F /  1.3 °C 30.22in /  1023.2hPa Calm     31% 0.00in /  0mm 5.0 W/m2
17:19 65.1 °F /  18.4 °C 33.8 °F /  1 °C 30.22in /  1023.2hPa Calm     31% 0.00in /  0mm 0.0 W/m2
17:25 64.6 °F /  18.1 °C 33.3 °F /  0.7 °C 30.22in /  1023.2hPa Calm     31% 0.00in /  0mm 0.0 W/m2
17:31 63.9 °F /  17.7 °C 33.4 °F /  0.8 °C 30.23in /  1023.6hPa Calm     32% 0.00in /  0mm 0.0 W/m2
17:37 63.1 °F /  17.3 °C 33.6 °F /  0.9 °C 30.23in /  1023.6hPa Calm     33% 0.00in /  0mm 0.0 W/m2
17:50 61.9 °F /  16.6 °C 33.3 °F /  0.7 °C 30.23in /  1023.6hPa Calm     34% 0.00in /  0mm 0.0 W/m2
17:56 61.3 °F /  16.3 °C 33.4 °F /  0.8 °C 30.23in /  1023.6hPa Calm     35% 0.00in /  0mm 0.0 W/m2
18:02 60.6 °F /  15.9 °C 32.9 °F /  0.5 °C 30.23in /  1023.6hPa Calm     35% 0.00in /  0mm 0.0 W/m2
18:08 60.1 °F /  15.6 °C 33.1 °F /  0.6 °C 30.23in /  1023.6hPa Calm     36% 0.00in /  0mm 0.0 W/m2
18:14 59.5 °F /  15.3 °C 33.3 °F /  0.7 °C 30.23in /  1023.6hPa Calm     37% 0.00in /  0mm 0.0 W/m2
18:20 58.8 °F /  14.9 °C 32.5 °F /  0.3 °C 30.24in /  1023.9hPa Calm     37% 0.00in /  0mm 0.0 W/m2
18:26 58.5 °F /  14.7 °C 32.4 °F /  0.2 °C 30.24in /  1023.9hPa Calm     37% 0.00in /  0mm 0.0 W/m2
18:32 57.9 °F /  14.4 °C 32.5 °F /  0.3 °C 30.24in /  1023.9hPa Calm     38% 0.00in /  0mm 0.0 W/m2
18:38 57.6 °F /  14.2 °C 32.7 °F /  0.4 °C 30.24in /  1023.9hPa Calm     39% 0.00in /  0mm 0.0 W/m2
18:44 57.2 °F /  14 °C 32.5 °F /  0.3 °C 30.24in /  1023.9hPa Calm     39% 0.00in /  0mm 0.0 W/m2
18:50 56.8 °F /  13.8 °C 32.2 °F /  0.1 °C 30.25in /  1024.3hPa NE 0.9mph /  1.4km/h 1.0mph /  1.6km/h 39% 0.00in /  0mm 0.0 W/m2
18:56 56.7 °F /  13.7 °C 32.5 °F /  0.3 °C 30.25in /  1024.3hPa Calm     40% 0.00in /  0mm 0.0 W/m2
19:03 56.5 °F /  13.6 °C 32.4 °F /  0.2 °C 30.25in /  1024.3hPa Calm     40% 0.00in /  0mm 0.0 W/m2
19:09 56.1 °F /  13.4 °C 32.2 °F /  0.1 °C 30.25in /  1024.3hPa Calm     40% 0.00in /  0mm 0.0 W/m2
19:17 55.9 °F /  13.3 °C 32.5 °F /  0.3 °C 30.25in /  1024.3hPa Calm     41% 0.00in /  0mm 0.0 W/m2
19:23 55.6 °F /  13.1 °C 32.2 °F /  0.1 °C 30.25in /  1024.3hPa Calm     41% 0.00in /  0mm 0.0 W/m2
19:29 55.2 °F /  12.9 °C 32.0 °F /  0 °C 30.25in /  1024.3hPa Calm     41% 0.00in /  0mm 0.0 W/m2
19:35 54.9 °F /  12.7 °C 32.2 °F /  0.1 °C 30.26in /  1024.6hPa Calm     42% 0.00in /  0mm 0.0 W/m2
19:41 54.5 °F /  12.5 °C 31.8 °F /  -0.1 °C 30.26in /  1024.6hPa Calm   1.0mph /  1.6km/h 42% 0.00in /  0mm 0.0 W/m2
19:48 54.3 °F /  12.4 °C 31.6 °F /  -0.2 °C 30.26in /  1024.6hPa ENE 0.9mph /  1.4km/h 3.0mph /  4.8km/h 42% 0.00in /  0mm 0.0 W/m2
19:54 54.3 °F /  12.4 °C 31.6 °F /  -0.2 °C 30.26in /  1024.6hPa Calm   1.0mph /  1.6km/h 42% 0.00in /  0mm 0.0 W/m2
20:00 54.1 °F /  12.3 °C 31.5 °F /  -0.3 °C 30.26in /  1024.6hPa Calm     42% 0.00in /  0mm 0.0 W/m2
20:06 54.1 °F /  12.3 °C 31.5 °F /  -0.3 °C 30.27in /  1024.9hPa Calm     42% 0.00in /  0mm 0.0 W/m2
20:12 54.1 °F /  12.3 °C 32.2 °F /  0.1 °C 30.27in /  1024.9hPa East 2.0mph /  3.2km/h 2.0mph /  3.2km/h 43% 0.00in /  0mm 0.0 W/m2
20:18 54.1 °F /  12.3 °C 32.2 °F /  0.1 °C 30.27in /  1024.9hPa Calm   4.0mph /  6.4km/h 43% 0.00in /  0mm 0.0 W/m2
20:24 54.3 °F /  12.4 °C 32.4 °F /  0.2 °C 30.27in /  1024.9hPa Calm   3.0mph /  4.8km/h 43% 0.00in /  0mm 0.0 W/m2
20:31 54.3 °F /  12.4 °C 32.4 °F /  0.2 °C 30.27in /  1024.9hPa Calm   1.0mph /  1.6km/h 43% 0.00in /  0mm 0.0 W/m2
20:37 54.3 °F /  12.4 °C 31.6 °F /  -0.2 °C 30.27in /  1024.9hPa Calm   6.0mph /  9.7km/h 42% 0.00in /  0mm 0.0 W/m2
20:43 54.7 °F /  12.6 °C 32.0 °F /  0 °C 30.28in /  1025.3hPa Calm   2.0mph /  3.2km/h 42% 0.00in /  0mm 0.0 W/m2
20:49 54.7 °F /  12.6 °C 32.0 °F /  0 °C 30.28in /  1025.3hPa Calm   3.0mph /  4.8km/h 42% 0.00in /  0mm 0.0 W/m2
20:55 54.7 °F /  12.6 °C 32.0 °F /  0 °C 30.28in /  1025.3hPa Calm   1.0mph /  1.6km/h 42% 0.00in /  0mm 0.0 W/m2
21:01 54.7 °F /  12.6 °C 32.0 °F /  0 °C 30.28in /  1025.3hPa NE 0.9mph /  1.4km/h 2.0mph /  3.2km/h 42% 0.00in /  0mm 0.0 W/m2
21:07 54.3 °F /  12.4 °C 31.6 °F /  -0.2 °C 30.27in /  1024.9hPa Calm   2.0mph /  3.2km/h 42% 0.00in /  0mm 0.0 W/m2
21:14 54.3 °F /  12.4 °C 31.6 °F /  -0.2 °C 30.28in /  1025.3hPa Calm     42% 0.00in /  0mm 0.0 W/m2
21:20 54.1 °F /  12.3 °C 31.5 °F /  -0.3 °C 30.28in /  1025.3hPa Calm   1.0mph /  1.6km/h 42% 0.00in /  0mm 0.0 W/m2
21:26 54.0 °F /  12.2 °C 31.5 °F /  -0.3 °C 30.28in /  1025.3hPa Calm   1.0mph /  1.6km/h 42% 0.00in /  0mm 0.0 W/m2
21:32 53.8 °F /  12.1 °C 31.8 °F /  -0.1 °C 30.27in /  1024.9hPa Calm   1.0mph /  1.6km/h 43% 0.00in /  0mm 0.0 W/m2
21:38 53.6 °F /  12 °C 31.6 °F /  -0.2 °C 30.27in /  1024.9hPa ENE 2.0mph /  3.2km/h 2.0mph /  3.2km/h 43% 0.00in /  0mm 0.0 W/m2
21:44 53.4 °F /  11.9 °C 31.5 °F /  -0.3 °C 30.27in /  1024.9hPa Calm   1.0mph /  1.6km/h 43% 0.00in /  0mm 0.0 W/m2
21:50 53.4 °F /  11.9 °C 31.5 °F /  -0.3 °C 30.28in /  1025.3hPa Calm   2.0mph /  3.2km/h 43% 0.00in /  0mm 0.0 W/m2
21:56 53.2 °F /  11.8 °C 31.3 °F /  -0.4 °C 30.28in /  1025.3hPa Calm   2.0mph /  3.2km/h 43% 0.00in /  0mm 0.0 W/m2
22:03 53.1 °F /  11.7 °C 31.1 °F /  -0.5 °C 30.27in /  1024.9hPa Calm     43% 0.00in /  0mm 0.0 W/m2
22:09 53.1 °F /  11.7 °C 31.1 °F /  -0.5 °C 30.27in /  1024.9hPa Calm     43% 0.00in /  0mm 0.0 W/m2
22:15 52.9 °F /  11.6 °C 30.9 °F /  -0.6 °C 30.27in /  1024.9hPa Calm     43% 0.00in /  0mm 0.0 W/m2
22:21 52.5 °F /  11.4 °C 30.7 °F /  -0.7 °C 30.27in /  1024.9hPa Calm     43% 0.00in /  0mm 0.0 W/m2
22:27 52.3 °F /  11.3 °C 31.1 °F /  -0.5 °C 30.27in /  1024.9hPa Calm     44% 0.00in /  0mm 0.0 W/m2
22:33 52.2 °F /  11.2 °C 30.9 °F /  -0.6 °C 30.27in /  1024.9hPa Calm     44% 0.00in /  0mm 0.0 W/m2
22:39 52.0 °F /  11.1 °C 30.7 °F /  -0.7 °C 30.27in /  1024.9hPa Calm     44% 0.00in /  0mm 0.0 W/m2
22:46 51.6 °F /  10.9 °C 30.9 °F /  -0.6 °C 30.27in /  1024.9hPa Calm   1.0mph /  1.6km/h 45% 0.00in /  0mm 0.0 W/m2
22:52 51.4 °F /  10.8 °C 30.7 °F /  -0.7 °C 30.27in /  1024.9hPa Calm   1.0mph /  1.6km/h 45% 0.00in /  0mm 0.0 W/m2
22:58 51.4 °F /  10.8 °C 30.7 °F /  -0.7 °C 30.27in /  1024.9hPa Calm   2.0mph /  3.2km/h 45% 0.00in /  0mm 0.0 W/m2
23:04 51.3 °F /  10.7 °C 30.6 °F /  -0.8 °C 30.27in /  1024.9hPa Calm   3.0mph /  4.8km/h 45% 0.00in /  0mm 0.0 W/m2
23:10 51.1 °F /  10.6 °C 31.1 °F /  -0.5 °C 30.27in /  1024.9hPa ESE 2.9mph /  4.7km/h 4.0mph /  6.4km/h 46% 0.00in /  0mm 0.0 W/m2
23:16 51.1 °F /  10.6 °C 31.1 °F /  -0.5 °C 30.27in /  1024.9hPa Calm   2.0mph /  3.2km/h 46% 0.00in /  0mm 0.0 W/m2
23:22 51.1 °F /  10.6 °C 31.1 °F /  -0.5 °C 30.27in /  1024.9hPa ENE 2.9mph /  4.7km/h 3.0mph /  4.8km/h 46% 0.00in /  0mm 0.0 W/m2
23:29 51.1 °F /  10.6 °C 31.1 °F /  -0.5 °C 30.26in /  1024.6hPa East 0.9mph /  1.4km/h 3.0mph /  4.8km/h 46% 0.00in /  0mm 0.0 W/m2
23:35 51.1 °F /  10.6 °C 30.6 °F /  -0.8 °C 30.26in /  1024.6hPa Calm   2.0mph /  3.2km/h 45% 0.00in /  0mm 0.0 W/m2
23:41 51.1 °F /  10.6 °C 30.6 °F /  -0.8 °C 30.26in /  1024.6hPa Calm   5.0mph /  8km/h 45% 0.00in /  0mm 0.0 W/m2
23:47 50.7 °F /  10.4 °C 30.7 °F /  -0.7 °C 30.26in /  1024.6hPa Calm   3.0mph /  4.8km/h 46% 0.00in /  0mm 0.0 W/m2
23:53 50.7 °F /  10.4 °C 30.7 °F /  -0.7 °C 30.26in /  1024.6hPa Calm   1.0mph /  1.6km/h 46% 0.00in /  0mm 0.0 W/m2
23:59 50.5 °F /  10.3 °C 30.6 °F /  -0.8 °C 30.26in /  1024.6hPa Calm   5.0mph /  8km/h 46% 0.00in /  0mm 0.0 W/m2
Olympia, Windhoek, Namibia
Compliments of Weather Underground - 3 mb